Flight Track Log - Related Links

Times and Time Zones

All times are in EDT time to prevent confusion due to time zone crossing. See the UAL481 flight status page for this flight to view local times or setup timezone preferences in your user account.

Time Position Orientation Groundspeed Altitude Reporting Facility
EDT Latitude Longitude Course Direction KTS MPH feet Rate Location/Type
Fri 07:34:39 PM 42.7694 -73.8089 296° West 168 193 1,400  Level Boston Center
Fri 07:35:28 PM 42.8111 -73.8128 356° North 191 220 2,900 2,312 Climbing Boston Center
Fri 07:36:28 PM 42.8517 -73.8872 307° West 271 312 5,600 3,224 Climbing Boston Center
Fri 07:37:00 PM 42.9038 -74.1678 299° West  Level FlightAware Approximate
Fri 07:37:55 PM 42.9022 -74.0161 298° West 267 307 10,800  Level Boston Center
Fri 07:38:00 PM 42.9552 -74.2976 296° West  Level FlightAware Approximate
Fri 07:38:54 PM 42.9406 -74.1106 299° West 287 330 12,600  Level Boston Center
Fri 07:39:00 PM 43.0033 -74.4299 296° West  Level FlightAware Approximate
Fri 07:39:54 PM 42.9906 -74.2369 298° West 329 379 15,900  Level Boston Center
Fri 07:40:55 PM 43.0286 -74.3431 296° West 339 390 18,000 2,250 Climbing Boston Center
Fri 07:41:54 PM 43.0744 -74.4611 298° West 344 396 20,400 2,269 Climbing Boston Center
Fri 07:42:54 PM 43.1222 -74.5878 297° West 351 404 22,500 1,450 Climbing Boston Center
Fri 07:43:54 PM 43.1719 -74.7119 299° West 362 417 23,300 1,300 Climbing Boston Center
Fri 07:44:54 PM 43.2194 -74.8364 298° West 372 428 25,100 1,650 Climbing Boston Center
Fri 07:45:54 PM 43.2686 -74.9636 298° West 372 428 26,600 1,488 Climbing Boston Center
Fri 07:46:55 PM 43.3219 -75.0972 299° West 378 435 28,100 1,450 Climbing Boston Center
Fri 07:47:54 PM 43.3806 -75.2569 297° West 388 447 29,500 1,412 Climbing Boston Center
Fri 07:48:54 PM 43.4353 -75.4025 297° West 422 486 30,900 1,537 Climbing Boston Center
Fri 07:49:55 PM 43.4900 -75.5425 298° West 422 486 32,600 1,850 Climbing Boston Center
Fri 07:50:54 PM 43.5383 -75.6797 296° West 410 472 34,600 1,563 Climbing Boston Center
Fri 07:51:54 PM 43.5906 -75.8144 298° West 410 472 35,700 694 Climbing Boston Center
Fri 07:52:55 PM 43.6408 -75.9519 297° West 405 466 36,000 100 Climbing Boston Center
Fri 07:53:54 PM 43.6906 -76.0900 297° West 405 466 35,900 454 Descending Boston Center
Fri 07:54:54 PM 43.7403 -76.2281 297° West 405 466 36,900 1,000 Climbing Boston Center
Fri 07:55:54 PM 43.7919 -76.3636 298° West 400 460 37,900 500 Climbing Boston Center
Fri 07:56:54 PM 43.8394 -76.4992 296° West 400 460 37,900 34 Level Boston Center
Fri 07:58:49 PM 43.9333 -76.7167 301° West 400 460 38,000 34 Climbing Toronto Center
Fri 07:59:49 PM 43.9500 -76.8833 278° West 400 460 38,000  Level Toronto Center
Fri 08:00:49 PM 43.9333 -77.0333 261° West 410 472 38,000  Level Toronto Center
Fri 08:01:49 PM 43.9167 -77.2000 262° West 410 472 38,000  Level Toronto Center
Fri 08:02:49 PM 43.9000 -77.3333 260° West 410 472 38,000  Level Toronto Center
Fri 08:03:49 PM 43.9000 -77.5000 270° West 420 483 38,000  Level Toronto Center
Fri 08:04:49 PM 43.8833 -77.6667 262° West 420 483 38,000  Level Toronto Center
Fri 08:05:49 PM 43.8667 -77.8333 262° West 410 472 38,000  Level Toronto Center
Fri 08:06:49 PM 43.8333 -77.9833 253° West 410 472 38,000  Level Toronto Center
Fri 08:07:49 PM 43.8167 -78.1333 261° West 410 472 38,000  Level Toronto Center
Fri 08:08:49 PM 43.8000 -78.3000 262° West 410 472 38,000  Level Toronto Center
Fri 08:09:49 PM 43.7833 -78.4500 261° West 410 472 38,000  Level Toronto Center
Fri 08:10:49 PM 43.7833 -78.6000 270° West 410 472 38,000  Level Toronto Center
Fri 08:11:49 PM 43.7667 -78.7500 261° West 410 472 38,000  Level Toronto Center
Fri 08:12:49 PM 43.7500 -78.9167 262° West 410 472 38,000  Level Toronto Center
Fri 08:13:49 PM 43.7333 -79.0833 262° West 410 472 38,000  Level Toronto Center
Fri 08:14:49 PM 43.7000 -79.2167 251° West 410 472 38,000  Level Toronto Center
Fri 08:15:49 PM 43.6833 -79.3833 262° West 410 472 38,000  Level Toronto Center
Fri 08:16:49 PM 43.6667 -79.5333 261° West 430 495 38,000  Level Toronto Center
Fri 08:17:49 PM 43.6500 -79.7000 262° West 420 483 38,000  Level Toronto Center
Fri 08:18:49 PM 43.6333 -79.8667 262° West 430 495 38,000  Level Toronto Center
Fri 08:19:49 PM 43.6167 -80.0167 261° West 410 472 38,000  Level Toronto Center
Fri 08:20:49 PM 43.6000 -80.1667 261° West 420 483 38,000  Level Toronto Center
Fri 08:21:49 PM 43.5667 -80.3500 256° West 420 483 38,000  Level Toronto Center
Fri 08:22:49 PM 43.5500 -80.4833 260° West 420 483 38,000  Level Toronto Center
Fri 08:23:49 PM 43.5333 -80.6500 262° West 420 483 38,000  Level Toronto Center
Fri 08:24:49 PM 43.5167 -80.8000 261° West 420 483 38,000  Level Toronto Center
Fri 08:25:49 PM 43.4833 -80.9667 255° West 420 483 38,000  Level Toronto Center
Fri 08:26:49 PM 43.4667 -81.1333 262° West 420 483 38,000  Level Toronto Center
Fri 08:27:49 PM 43.4500 -81.2833 261° West 420 483 38,000  Level Toronto Center
Fri 08:28:49 PM 43.4167 -81.4500 255° West 420 483 38,000  Level Toronto Center
Fri 08:29:49 PM 43.4000 -81.5833 260° West 420 483 38,000  Level Toronto Center
Fri 08:30:49 PM 43.3667 -81.7500 255° West 420 483 38,000  Level Toronto Center
Fri 08:31:49 PM 43.3333 -81.9000 253° West 430 495 38,000 50 Level Toronto Center
Fri 08:32:49 PM 43.3000 -82.0667 255° West 430 495 38,100  Climbing Toronto Center
Fri 08:33:49 PM 43.2667 -82.2167 253° West 420 483 38,000 -50 Descending Toronto Center
Fri 08:34:49 PM 43.2333 -82.3833 255° West 420 483 38,000  Level Toronto Center
Fri 08:35:49 PM 43.1833 -82.5167 243° Southwest 420 483 38,000  Level Toronto Center
Fri 08:36:49 PM 43.0833 -82.5833 206° Southwest 430 495 38,000  Level Toronto Center
Fri 08:37:22 PM 43.0358 -82.6397 221° Southwest 415 478 38,000 65 Level Cleveland Center
Fri 08:38:22 PM 42.9444 -82.7417 219° Southwest 428 493 38,100  Climbing Cleveland Center
Fri 08:39:22 PM 42.8875 -82.8842 241° Southwest 422 486 38,000 -1,100 Descending Cleveland Center
Fri 08:40:22 PM 42.8903 -83.0458 271° West 405 466 35,900 -2,500 Descending Cleveland Center
Fri 08:41:22 PM 42.8908 -83.2072 270° West 413 475 33,000 -1,950 Descending Cleveland Center
Fri 08:42:22 PM 42.8911 -83.3717 270° West 423 487 32,000 -500 Descending Cleveland Center
Fri 08:43:22 PM 42.8914 -83.5361 270° West 433 498 32,000  Level Cleveland Center
Fri 08:44:22 PM 42.8911 -83.6978 270° West 433 498 32,000  Level Cleveland Center
Fri 08:45:22 PM 42.8903 -83.8792 270° West 441 507 32,000  Level Cleveland Center
Fri 08:46:22 PM 42.8875 -84.0433 269° West 441 507 32,000  Level Cleveland Center
Fri 08:47:22 PM 42.8867 -84.2078 270° West 441 507 32,000  Level Cleveland Center
Fri 08:48:25 PM 42.8864 -84.3478 270° West 431 496 32,000  Level Chicago Center
Fri 08:49:27 PM 42.8831 -84.5428 269° West 429 494 32,000  Level Chicago Center
Fri 08:50:29 PM 42.8708 -84.7053 264° West 430 495 32,000  Level Chicago Center
Fri 08:51:31 PM 42.8533 -84.8667 262° West 431 496 32,000  Level Chicago Center
Fri 08:52:33 PM 42.8364 -85.0294 262° West 434 499 32,000  Level Chicago Center
Fri 08:53:35 PM 42.8197 -85.1922 262° West 435 501 32,000 -581 Level Chicago Center
Fri 08:54:37 PM 42.8017 -85.3536 261° West 432 497 30,800 -1,805 Descending Chicago Center
Fri 08:55:38 PM 42.7828 -85.5206 261° West 442 509 28,300 -2,683 Descending Chicago Center
Fri 08:56:40 PM 42.7469 -85.7131 256° West 436 502 25,300 -2,710 Descending Chicago Center
Fri 08:57:42 PM 42.7186 -85.8689 256° West 425 489 22,700 -2,129 Descending Chicago Center
Fri 08:58:44 PM 42.6911 -86.0206 256° West 413 475 20,900 -1,452 Descending Chicago Center
Fri 08:59:46 PM 42.6644 -86.1658 256° West 398 458 19,700 -1,161 Descending Chicago Center
Fri 09:00:48 PM 42.6383 -86.3094 256° West 391 450 18,500 -1,113 Descending Chicago Center
Fri 09:01:50 PM 42.6131 -86.4436 256° West 373 429 17,400 -1,122 Descending Chicago Center
Fri 09:02:51 PM 42.5864 -86.5764 255° West 367 422 16,200 -1,220 Descending Chicago Center
Fri 09:03:53 PM 42.5628 -86.7083 256° West 361 415 14,900 -1,403 Descending Chicago Center
Fri 09:04:55 PM 42.5239 -86.8581 251° West 353 406 13,300 -1,452 Descending Chicago Center
Fri 09:05:57 PM 42.4919 -86.9769 250° West 338 389 11,900 -1,306 Descending Chicago Center
Fri 09:06:59 PM 42.4600 -87.0897 249° West 323 372 10,600 -1,113 Descending Chicago Center
Fri 09:08:01 PM 42.4328 -87.1922 250° West 290 334 9,600 -774 Descending Chicago Center
Fri 09:09:03 PM 42.4011 -87.2886 246° West 280 322 9,000 -581 Descending Chicago Center
Fri 09:10:05 PM 42.3650 -87.3967 246° West 274 315 8,400 -919 Descending Chicago Center
Fri 09:11:07 PM 42.3353 -87.4797 244° Southwest 273 314 7,100 -683 Descending Chicago Center
Fri 09:12:08 PM 42.2931 -87.5703 238° Southwest 267 307 7,000 -390 Descending Chicago Center
Fri 09:13:10 PM 42.2436 -87.6256 220° Southwest 236 272 6,300 -823 Descending Chicago Center
Fri 09:14:12 PM 42.2031 -87.6694 219° Southwest 193 222 5,300 -774 Descending Chicago Center
Fri 09:15:14 PM 42.1561 -87.7192 218° Southwest 183 211 4,700 -581 Descending Chicago Center

Login

Don't have an account? Register now (free) for customized features, flight alerts, and more!